Allerton, Illinois
Current Conditions -  °F | °C
As of 8:53 AM on Wednesday 22 Oct 2014 (Local Time) from KCMI Reporting Station
Clear Clear  
Wind Chill: 41°   Ceiling: Unl
Heat Index: 44°   Visibility: 10mi
Dew Point: 39°   Wind: 6mph
Humidity: 82%   Direction: 70°ENE
Pressure: 30.34"   Gusts: NA
Location:  39.91°N, 87.94°W
Report Text: KCMI 221353Z 07005KT 10SM CLR 07/04 A3034 RMK AO2 SLP278 T00670039 $
Loading
Personal Weather Stations






























Interactive Weather Map
Tropical Storm Tracking
New forecast layout! Learn more

10-Day Weather Forecast

Advertisements
Track Severe Weather on mobile